createdAt,value
2023-04-03T00:00:04.481Z,100.00
2023-04-03T00:02:36.837Z,100.00
2023-04-03T00:05:06.065Z,100.00
2023-04-03T00:07:36.039Z,100.00
2023-04-03T00:10:05.776Z,100.00
2023-04-03T00:12:35.226Z,100.00
2023-04-03T00:15:04.106Z,100.00
2023-04-03T00:17:34.354Z,100.00
2023-04-03T00:20:02.974Z,100.00
2023-04-03T00:22:31.926Z,100.00
2023-04-03T00:25:03.453Z,100.00
2023-04-03T00:27:32.222Z,100.00
2023-04-03T00:30:02.061Z,100.00
2023-04-03T00:32:31.264Z,100.00
2023-04-03T00:34:59.926Z,100.00
2023-04-03T00:37:28.523Z,100.00
2023-04-03T00:39:57.281Z,100.00
2023-04-03T00:42:27.081Z,100.00
2023-04-03T00:45:33.642Z,100.00
2023-04-03T00:48:06.819Z,100.00
2023-04-03T00:50:37.937Z,100.00
2023-04-03T00:53:09.637Z,100.00
2023-04-03T00:55:40.491Z,100.00
2023-04-03T00:58:11.388Z,100.00
2023-04-03T01:00:44.450Z,100.00
2023-04-03T01:03:12.936Z,100.00
2023-04-03T01:05:42.903Z,100.00
2023-04-03T01:08:11.588Z,100.00
2023-04-03T01:10:40.197Z,100.00
2023-04-03T01:13:23.584Z,100.00
2023-04-03T01:15:52.435Z,100.00
2023-04-03T01:18:21.474Z,100.00
2023-04-03T01:21:22.453Z,100.00
2023-04-03T01:24:08.145Z,100.00
2023-04-03T01:26:36.919Z,100.00
2023-04-03T01:29:06.788Z,100.00
2023-04-03T01:31:51.013Z,100.00
2023-04-03T01:34:19.507Z,100.00
2023-04-03T01:36:48.166Z,100.00
2023-04-03T01:39:17.493Z,100.00
2023-04-03T01:41:46.727Z,100.00
2023-04-03T01:44:24.548Z,100.00
2023-04-03T01:46:54.461Z,100.00
2023-04-03T01:49:24.714Z,100.00
2023-04-03T01:51:53.158Z,100.00
2023-04-03T01:54:21.610Z,100.00
2023-04-03T01:56:50.461Z,100.00
2023-04-03T01:59:20.703Z,100.00
2023-04-03T02:01:49.034Z,100.00
2023-04-03T02:04:19.149Z,100.00
2023-04-03T02:06:47.631Z,100.00
2023-04-03T02:09:16.372Z,100.00
2023-04-03T02:11:44.766Z,100.00
2023-04-03T02:14:13.573Z,100.00
2023-04-03T02:16:42.083Z,100.00
2023-04-03T02:19:10.482Z,100.00
2023-04-03T02:21:40.588Z,100.00
2023-04-03T02:24:09.350Z,100.00
2023-04-03T02:26:37.734Z,100.00
2023-04-03T02:29:07.020Z,100.00
2023-04-03T02:31:37.288Z,100.00
2023-04-03T02:34:06.804Z,100.00
2023-04-03T02:36:37.304Z,100.00
2023-04-03T02:39:10.209Z,100.00
2023-04-03T02:41:38.653Z,100.00
2023-04-03T02:44:14.349Z,100.00
2023-04-03T02:46:43.272Z,100.00
2023-04-03T02:49:13.692Z,100.00
2023-04-03T02:51:42.023Z,100.00
2023-04-03T02:54:12.468Z,100.00
2023-04-03T02:56:45.237Z,100.00
2023-04-03T02:59:14.222Z,100.00
2023-04-03T03:01:43.552Z,100.00
2023-04-03T03:04:12.556Z,100.00
2023-04-03T03:06:42.834Z,100.00
2023-04-03T03:09:14.190Z,100.00
2023-04-03T03:11:44.586Z,100.00
2023-04-03T03:14:12.971Z,100.00
2023-04-03T03:16:41.766Z,100.00
2023-04-03T03:19:11.116Z,100.00
2023-04-03T03:21:39.577Z,100.00
2023-04-03T03:24:08.532Z,100.00
2023-04-03T03:26:38.744Z,100.00
2023-04-03T03:29:07.198Z,100.00
2023-04-03T03:31:35.915Z,100.00
2023-04-03T03:34:04.249Z,100.00
2023-04-03T03:36:32.863Z,100.00
2023-04-03T03:39:01.288Z,100.00
2023-04-03T03:41:29.905Z,100.00
2023-04-03T03:43:59.747Z,100.00
2023-04-03T03:46:30.822Z,100.00
2023-04-03T03:48:59.112Z,100.00
2023-04-03T03:51:27.484Z,100.00
2023-04-03T03:53:56.530Z,100.00
2023-04-03T03:56:24.858Z,100.00
2023-04-03T03:58:53.672Z,100.00
2023-04-03T04:01:25.586Z,100.00
2023-04-03T04:03:56.095Z,100.00
2023-04-03T04:06:28.393Z,100.00
2023-04-03T04:09:00.000Z,100.00
2023-04-03T04:11:29.368Z,100.00
2023-04-03T04:13:58.561Z,100.00
2023-04-03T04:16:31.326Z,100.00
2023-04-03T04:19:07.506Z,100.00
2023-04-03T04:21:37.381Z,100.00
2023-04-03T04:24:06.687Z,100.00
2023-04-03T04:26:35.907Z,100.00
2023-04-03T04:29:05.050Z,100.00
2023-04-03T04:31:38.032Z,100.00
2023-04-03T04:34:07.250Z,100.00
2023-04-03T04:36:38.678Z,100.00
2023-04-03T04:39:08.058Z,100.00
2023-04-03T04:41:37.029Z,100.00
2023-04-03T04:44:06.964Z,100.00
2023-04-03T04:46:37.774Z,100.00
2023-04-03T04:49:07.322Z,100.00
2023-04-03T04:51:48.328Z,100.00
2023-04-03T04:54:23.170Z,100.00
2023-04-03T04:56:52.344Z,100.00
2023-04-03T04:59:22.053Z,100.00
2023-04-03T05:01:53.598Z,100.00
2023-04-03T05:04:22.553Z,100.00
2023-04-03T05:06:55.869Z,100.00
2023-04-03T05:09:28.536Z,100.00
2023-04-03T05:11:58.166Z,100.00
2023-04-03T05:14:29.565Z,100.00
2023-04-03T05:17:05.838Z,100.00
2023-04-03T05:19:37.954Z,100.00
2023-04-03T05:22:08.320Z,100.00
2023-04-03T05:24:37.474Z,100.00
2023-04-03T05:27:07.805Z,100.00
2023-04-03T05:29:40.241Z,100.00
2023-04-03T05:32:09.948Z,100.00
2023-04-03T05:34:38.793Z,100.00
2023-04-03T05:37:07.501Z,100.00
2023-04-03T05:39:37.170Z,100.00
2023-04-03T05:42:07.711Z,100.00
2023-04-03T05:44:37.960Z,100.00
2023-04-03T05:47:06.807Z,100.00
2023-04-03T05:49:36.924Z,100.00
2023-04-03T05:52:05.598Z,100.00
2023-04-03T05:54:35.407Z,100.00
2023-04-03T05:57:19.377Z,100.00
2023-04-03T05:59:49.226Z,100.00
2023-04-03T06:02:20.119Z,100.00
2023-04-03T06:04:51.734Z,100.00
2023-04-03T06:07:23.694Z,100.00
2023-04-03T06:09:52.982Z,100.00
2023-04-03T06:12:22.592Z,100.00
2023-04-03T06:14:51.727Z,100.00
2023-04-03T06:17:21.539Z,100.00
2023-04-03T06:19:51.715Z,99.46
2023-04-03T06:22:20.996Z,100.00
2023-04-03T06:24:49.721Z,99.98
2023-04-03T06:27:18.276Z,100.00
2023-04-03T06:29:47.237Z,100.00
2023-04-03T06:32:15.753Z,99.59
2023-04-03T06:34:44.350Z,99.41
2023-04-03T06:37:17.423Z,99.51
2023-04-03T06:39:46.375Z,98.12
2023-04-03T06:42:15.097Z,97.56
2023-04-03T06:44:54.544Z,97.91
2023-04-03T06:47:23.574Z,96.21
2023-04-03T06:49:52.320Z,97.42
2023-04-03T06:52:22.238Z,96.42
2023-04-03T06:54:52.783Z,97.66
2023-04-03T06:57:21.743Z,95.61
2023-04-03T06:59:50.747Z,96.68
2023-04-03T07:02:19.761Z,95.91
2023-04-03T07:04:48.270Z,94.70
2023-04-03T07:07:18.607Z,94.67
2023-04-03T07:09:49.223Z,96.10
2023-04-03T07:12:17.821Z,94.36
2023-04-03T07:14:46.694Z,95.08
2023-04-03T07:17:15.162Z,95.48
2023-04-03T07:19:43.627Z,95.60
2023-04-03T07:22:12.363Z,95.23
2023-04-03T07:24:41.507Z,93.71
2023-04-03T07:27:13.851Z,92.49
2023-04-03T07:29:42.750Z,92.40
2023-04-03T07:32:11.145Z,94.99
2023-04-03T07:34:39.639Z,93.08
2023-04-03T07:37:08.186Z,94.33
2023-04-03T07:39:36.540Z,93.39
2023-04-03T07:42:05.048Z,91.73
2023-04-03T07:44:35.152Z,92.49
2023-04-03T07:47:03.677Z,91.34
2023-04-03T07:49:34.065Z,91.44
2023-04-03T07:52:02.562Z,90.66
2023-04-03T07:54:31.355Z,92.08
2023-04-03T07:57:00.029Z,93.04
2023-04-03T07:59:29.159Z,93.47
2023-04-03T08:01:58.962Z,90.88
2023-04-03T08:04:28.199Z,88.85
2023-04-03T08:06:56.754Z,87.79
2023-04-03T08:09:25.285Z,88.98
2023-04-03T08:11:54.704Z,87.13
2023-04-03T08:14:31.877Z,89.00
2023-04-03T08:17:05.555Z,88.95
2023-04-03T08:19:34.173Z,88.03
2023-04-03T08:22:04.161Z,89.14
2023-04-03T08:24:32.756Z,86.54
2023-04-03T08:27:02.070Z,86.81
2023-04-03T08:29:32.077Z,85.96
2023-04-03T08:32:03.260Z,86.59
2023-04-03T08:34:35.806Z,86.68
2023-04-03T08:37:04.414Z,86.54
2023-04-03T08:39:34.580Z,87.28
2023-04-03T08:42:08.687Z,88.00
2023-04-03T08:44:42.671Z,88.18
2023-04-03T08:47:25.668Z,86.81
2023-04-03T08:49:58.076Z,85.70
2023-04-03T08:52:35.285Z,83.67
2023-04-03T08:55:09.305Z,83.82
2023-04-03T08:57:43.073Z,81.94
2023-04-03T09:00:19.953Z,82.10
2023-04-03T09:02:51.176Z,84.43
2023-04-03T09:05:23.908Z,82.42
2023-04-03T09:08:01.821Z,83.64
2023-04-03T09:10:34.738Z,83.12
2023-04-03T09:13:08.380Z,81.88
2023-04-03T09:15:39.479Z,81.72
2023-04-03T09:18:17.950Z,71.71
2023-04-03T09:20:52.558Z,81.24
2023-04-03T09:23:28.746Z,81.94
2023-04-03T09:26:04.925Z,80.96
2023-04-03T09:28:46.789Z,78.64
2023-04-03T09:31:24.604Z,78.76
2023-04-03T09:33:57.378Z,79.18
2023-04-03T09:36:43.407Z,71.85
2023-04-03T09:39:15.789Z,79.41
2023-04-03T09:41:57.294Z,78.62
2023-04-03T09:44:27.261Z,77.83
2023-04-03T09:46:55.938Z,80.30
2023-04-03T09:49:26.261Z,80.18
2023-04-03T09:51:55.172Z,78.72
2023-04-03T09:54:37.184Z,75.84
2023-04-03T09:57:14.423Z,75.68
2023-04-03T09:59:48.505Z,74.73
2023-04-03T10:02:36.619Z,74.31
2023-04-03T10:05:27.349Z,76.08
2023-04-03T10:08:11.835Z,72.40
2023-04-03T10:10:40.658Z,64.60
2023-04-03T10:13:20.175Z,72.44
2023-04-03T10:15:55.124Z,74.01
2023-04-03T10:18:34.241Z,71.01
2023-04-03T10:21:14.510Z,73.14
2023-04-03T10:23:57.021Z,69.18
2023-04-03T10:26:38.745Z,66.24
2023-04-03T10:29:22.962Z,68.06
2023-04-03T10:32:00.323Z,71.07
2023-04-03T10:34:32.641Z,73.41
2023-04-03T10:37:13.519Z,67.41
2023-04-03T10:39:52.924Z,72.21
2023-04-03T10:42:29.377Z,72.18
2023-04-03T10:45:17.589Z,71.17
2023-04-03T10:47:56.222Z,69.85
2023-04-03T10:50:33.871Z,68.69
2023-04-03T10:53:10.334Z,66.29
2023-04-03T10:55:44.424Z,67.40
2023-04-03T10:58:21.712Z,65.19
2023-04-03T11:00:54.289Z,65.22
2023-04-03T11:03:32.482Z,62.06
2023-04-03T11:06:04.425Z,62.70
2023-04-03T11:08:37.597Z,49.66
2023-04-03T11:11:14.467Z,61.06
2023-04-03T11:13:47.882Z,64.11
2023-04-03T11:16:23.514Z,60.11
2023-04-03T11:18:56.756Z,58.46
2023-04-03T11:21:31.922Z,59.14
2023-04-03T11:24:05.426Z,62.70
2023-04-03T11:26:40.975Z,62.02
2023-04-03T11:29:20.728Z,64.48
2023-04-03T11:32:10.517Z,59.98
2023-04-03T11:34:41.925Z,55.12
2023-04-03T11:37:18.048Z,62.91
2023-04-03T11:39:56.679Z,60.35
2023-04-03T11:42:33.514Z,59.68
2023-04-03T11:45:26.526Z,53.62
2023-04-03T11:47:57.235Z,60.89
2023-04-03T11:50:43.597Z,59.57
2023-04-03T11:53:30.860Z,59.77
2023-04-03T11:56:06.653Z,62.64
2023-04-03T11:58:36.046Z,60.61
2023-04-03T12:01:07.888Z,56.64
2023-04-03T12:03:54.253Z,50.25
2023-04-03T12:07:05.442Z,49.79
2023-04-03T12:09:59.050Z,50.54
2023-04-03T12:12:35.002Z,60.61
2023-04-03T12:15:27.976Z,49.69
2023-04-03T12:17:56.735Z,62.41
2023-04-03T12:21:00.788Z,58.13
2023-04-03T12:23:32.928Z,63.26
2023-04-03T12:26:05.835Z,64.45
2023-04-03T12:28:41.557Z,62.90
2023-04-03T12:31:13.831Z,65.24
2023-04-03T12:34:02.818Z,58.47
2023-04-03T12:36:41.990Z,63.18
2023-04-03T12:39:37.406Z,58.78
2023-04-03T12:42:20.246Z,64.48
2023-04-03T12:44:59.592Z,65.71
2023-04-03T12:47:37.219Z,65.75
2023-04-03T12:50:18.574Z,68.64
2023-04-03T12:52:53.565Z,66.88
2023-04-03T12:55:23.147Z,65.86
2023-04-03T12:57:52.021Z,64.38
2023-04-03T13:00:40.094Z,60.70
2023-04-03T13:03:23.179Z,64.46
2023-04-03T13:05:52.565Z,63.66
2023-04-03T13:08:21.872Z,64.10
2023-04-03T13:10:57.860Z,62.91
2023-04-03T13:13:27.533Z,65.85
2023-04-03T13:15:58.249Z,65.55
2023-04-03T13:18:30.444Z,65.86
2023-04-03T13:21:02.114Z,55.92
2023-04-03T13:23:32.414Z,64.03
2023-04-03T13:26:04.648Z,65.18
2023-04-03T13:28:35.274Z,66.59
2023-04-03T13:31:11.379Z,64.02
2023-04-03T13:33:41.118Z,64.79
2023-04-03T13:36:19.162Z,65.71
2023-04-03T13:38:48.109Z,65.62
2023-04-03T13:41:28.986Z,60.95
2023-04-03T13:44:06.600Z,60.95
2023-04-03T13:46:42.180Z,65.43
2023-04-03T13:49:22.094Z,62.35
2023-04-03T13:52:04.446Z,64.33
2023-04-03T13:54:38.383Z,63.10
2023-04-03T13:57:15.105Z,61.41
2023-04-03T13:59:45.360Z,64.57
2023-04-03T14:02:22.965Z,61.17
2023-04-03T14:04:57.510Z,65.71
2023-04-03T14:07:28.656Z,63.77
2023-04-03T14:09:57.866Z,64.57
2023-04-03T14:12:32.350Z,63.36
2023-04-03T14:15:06.623Z,63.62
2023-04-03T14:17:37.085Z,64.66
2023-04-03T14:20:06.978Z,63.89
2023-04-03T14:22:35.890Z,64.49
2023-04-03T14:25:05.341Z,64.50
2023-04-03T14:27:38.677Z,65.10
2023-04-03T14:30:14.717Z,65.53
2023-04-03T14:32:44.955Z,65.20
2023-04-03T14:35:13.742Z,65.46
2023-04-03T14:37:42.804Z,64.79
2023-04-03T14:40:15.155Z,63.71
2023-04-03T14:42:43.893Z,64.81
2023-04-03T14:45:14.509Z,63.55
2023-04-03T14:47:49.129Z,62.40
2023-04-03T14:50:22.175Z,62.79
2023-04-03T14:52:52.675Z,63.57
2023-04-03T14:55:23.903Z,63.77
2023-04-03T14:57:53.559Z,64.44
2023-04-03T15:00:24.546Z,63.32
2023-04-03T15:02:55.099Z,64.11
2023-04-03T15:05:24.817Z,63.06
2023-04-03T15:07:57.845Z,62.86
2023-04-03T15:10:29.967Z,63.10
2023-04-03T15:12:58.914Z,54.35
2023-04-03T15:15:31.761Z,62.25
2023-04-03T15:18:02.534Z,64.58
2023-04-03T15:20:34.459Z,65.30
2023-04-03T15:23:03.398Z,64.68
2023-04-03T15:25:34.094Z,65.04
2023-04-03T15:28:03.549Z,66.07
2023-04-03T15:30:33.245Z,64.51
2023-04-03T15:33:04.312Z,65.07
2023-04-03T15:35:34.294Z,65.02
2023-04-03T15:38:04.240Z,63.08
2023-04-03T15:40:37.997Z,62.67
2023-04-03T15:43:09.839Z,63.71
2023-04-03T15:45:41.222Z,62.49
2023-04-03T15:48:13.413Z,64.30
2023-04-03T15:50:44.129Z,65.21
2023-04-03T15:53:14.156Z,64.50
2023-04-03T15:55:43.146Z,64.82
2023-04-03T15:58:12.255Z,64.44
2023-04-03T16:00:42.165Z,63.87
2023-04-03T16:03:17.580Z,63.10
2023-04-03T16:05:47.988Z,64.16
2023-04-03T16:08:19.830Z,63.24
2023-04-03T16:10:49.462Z,63.23
2023-04-03T16:13:19.348Z,62.38
2023-04-03T16:15:50.089Z,62.37
2023-04-03T16:18:21.652Z,61.19
2023-04-03T16:20:51.844Z,62.46
2023-04-03T16:23:22.537Z,62.83
2023-04-03T16:25:56.149Z,61.62
2023-04-03T16:28:25.341Z,63.19
2023-04-03T16:30:54.457Z,63.23
2023-04-03T16:33:24.577Z,63.63
2023-04-03T16:35:53.870Z,63.71
2023-04-03T16:38:23.341Z,63.81
2023-04-03T16:40:53.967Z,63.65
2023-04-03T16:43:22.662Z,63.51
2023-04-03T16:45:51.351Z,63.90
2023-04-03T16:48:21.132Z,64.30
2023-04-03T16:50:55.096Z,63.94
2023-04-03T16:53:25.397Z,64.21
2023-04-03T16:55:55.156Z,64.78
2023-04-03T16:58:25.948Z,64.11
2023-04-03T17:00:56.273Z,63.90
2023-04-03T17:03:26.915Z,65.23
2023-04-03T17:05:57.344Z,64.68
2023-04-03T17:08:26.730Z,65.25
2023-04-03T17:10:56.143Z,66.13
2023-04-03T17:13:32.211Z,67.23
2023-04-03T17:16:01.096Z,67.91
2023-04-03T17:18:29.969Z,67.44
2023-04-03T17:21:00.523Z,66.82
2023-04-03T17:23:30.530Z,67.32
2023-04-03T17:26:00.164Z,67.61
2023-04-03T17:28:29.641Z,66.66
2023-04-03T17:30:59.624Z,67.69
2023-04-03T17:33:31.267Z,66.96
2023-04-03T17:36:04.548Z,67.67
2023-04-03T17:38:33.556Z,68.47
2023-04-03T17:41:04.572Z,68.06
2023-04-03T17:43:33.514Z,67.93
2023-04-03T17:46:05.984Z,67.81
2023-04-03T17:48:35.492Z,67.61
2023-04-03T17:51:07.655Z,67.97
2023-04-03T17:53:36.606Z,68.40
2023-04-03T17:56:10.518Z,68.16
2023-04-03T17:58:39.409Z,69.60
2023-04-03T18:01:12.556Z,69.05
2023-04-03T18:03:41.484Z,70.06
2023-04-03T18:06:13.942Z,69.31
2023-04-03T18:08:45.621Z,69.33
2023-04-03T18:11:15.696Z,69.83
2023-04-03T18:13:45.504Z,70.47
2023-04-03T18:16:15.709Z,70.11
2023-04-03T18:18:45.417Z,70.35
2023-04-03T18:21:16.956Z,70.74
2023-04-03T18:23:50.458Z,70.50
2023-04-03T18:26:20.873Z,71.45
2023-04-03T18:28:56.638Z,70.95
2023-04-03T18:31:27.786Z,71.01
2023-04-03T18:33:59.076Z,68.40
2023-04-03T18:36:29.611Z,71.54
2023-04-03T18:38:58.989Z,71.88
2023-04-03T18:41:32.340Z,72.49
2023-04-03T18:44:04.521Z,72.46
2023-04-03T18:46:34.078Z,71.77
2023-04-03T18:49:03.837Z,71.67
2023-04-03T18:51:34.185Z,71.14
2023-04-03T18:54:04.151Z,72.00
2023-04-03T18:56:33.875Z,71.27
2023-04-03T18:59:04.143Z,71.53
2023-04-03T19:01:33.605Z,71.20
2023-04-03T19:04:02.656Z,71.62
2023-04-03T19:06:31.447Z,72.23
2023-04-03T19:09:01.988Z,72.77
2023-04-03T19:11:31.547Z,72.81
2023-04-03T19:16:36.174Z,72.91
2023-04-03T19:19:05.685Z,72.73
2023-04-03T19:21:35.305Z,73.07
2023-04-03T19:24:06.709Z,73.64
2023-04-03T19:26:35.478Z,74.25
2023-04-03T19:29:05.037Z,74.52
2023-04-03T19:31:35.177Z,74.17
2023-04-03T19:34:06.604Z,74.24
2023-04-03T19:36:36.123Z,74.09
2023-04-03T19:39:08.102Z,74.30
2023-04-03T19:41:38.755Z,74.97
2023-04-03T19:44:08.692Z,74.73
2023-04-03T19:46:38.115Z,75.07
2023-04-03T19:49:06.838Z,75.05
2023-04-03T19:51:35.826Z,75.45
2023-04-03T19:54:06.178Z,75.53
2023-04-03T19:56:36.025Z,75.46
2023-04-03T19:59:04.911Z,75.56
2023-04-03T20:01:34.851Z,75.75
2023-04-03T20:04:03.890Z,76.07
2023-04-03T20:06:32.757Z,75.85
2023-04-03T20:09:01.433Z,75.63
2023-04-03T20:11:31.910Z,76.38
2023-04-03T20:14:01.399Z,76.15
2023-04-03T20:16:30.694Z,76.85
2023-04-03T20:18:59.816Z,77.22
2023-04-03T20:21:30.760Z,76.59
2023-04-03T20:24:00.363Z,77.40
2023-04-03T20:26:31.770Z,77.35
2023-04-03T20:29:03.490Z,77.38
2023-04-03T20:31:32.847Z,74.39
2023-04-03T20:34:03.175Z,77.48
2023-04-03T20:36:33.511Z,77.53
2023-04-03T20:39:03.203Z,77.72
2023-04-03T20:41:36.286Z,77.79
2023-04-03T20:44:06.460Z,78.16
2023-04-03T20:46:51.576Z,78.33
2023-04-03T20:49:24.306Z,78.84
2023-04-03T20:51:54.055Z,79.04
2023-04-03T20:54:24.194Z,79.09
2023-04-03T20:56:53.914Z,79.11
2023-04-03T20:59:24.771Z,79.87
2023-04-03T21:01:53.582Z,79.54
2023-04-03T21:04:27.699Z,80.03
2023-04-03T21:07:33.530Z,78.93
2023-04-03T21:10:39.621Z,79.41
2023-04-03T21:13:46.656Z,78.92
2023-04-03T21:16:15.070Z,79.31
2023-04-03T21:19:02.491Z,78.29
2023-04-03T21:21:31.398Z,79.12
2023-04-03T21:24:00.301Z,78.93
2023-04-03T21:26:28.953Z,78.92
2023-04-03T21:28:57.740Z,79.16
2023-04-03T21:31:46.683Z,78.59
2023-04-03T21:34:17.049Z,78.53
2023-04-03T21:36:45.911Z,78.81
2023-04-03T21:39:14.837Z,79.16
2023-04-03T21:41:43.576Z,79.22
2023-04-03T21:44:12.166Z,79.21
2023-04-03T21:46:40.550Z,79.06
2023-04-03T21:49:09.420Z,78.98
2023-04-03T21:51:39.975Z,79.23
2023-04-03T21:54:08.698Z,79.53
2023-04-03T21:56:37.464Z,79.82
2023-04-03T21:59:06.543Z,79.47
2023-04-03T22:01:35.346Z,79.26
2023-04-03T22:04:03.791Z,79.65
2023-04-03T22:06:32.370Z,79.73
2023-04-03T22:09:02.419Z,79.75
2023-04-03T22:11:31.604Z,79.96
2023-04-03T22:14:00.405Z,79.88
2023-04-03T22:16:29.046Z,80.21
2023-04-03T22:18:59.590Z,80.26
2023-04-03T22:21:28.564Z,80.53
2023-04-03T22:23:57.288Z,80.86
2023-04-03T22:26:27.584Z,80.78
2023-04-03T22:28:56.221Z,81.11
2023-04-03T22:31:25.039Z,81.53
2023-04-03T22:33:54.923Z,81.64
2023-04-03T22:36:23.476Z,81.75
2023-04-03T22:38:52.135Z,81.80
2023-04-03T22:41:20.962Z,81.80
2023-04-03T22:43:51.264Z,82.36
2023-04-03T22:46:20.848Z,82.43
2023-04-03T22:48:49.398Z,82.58
2023-04-03T22:51:17.707Z,82.81
2023-04-03T22:53:46.119Z,83.24
2023-04-03T22:56:15.032Z,83.21
2023-04-03T22:58:43.479Z,83.10
2023-04-03T23:01:15.121Z,83.36
2023-04-03T23:03:44.100Z,83.71
2023-04-03T23:06:14.224Z,83.81
2023-04-03T23:08:43.976Z,83.69
2023-04-03T23:11:12.418Z,83.62
2023-04-03T23:13:43.742Z,84.42
2023-04-03T23:16:13.834Z,84.04
2023-04-03T23:18:43.639Z,84.46
2023-04-03T23:21:13.070Z,84.60
2023-04-03T23:23:41.633Z,84.39
2023-04-03T23:26:10.461Z,84.56
2023-04-03T23:28:38.793Z,84.65
2023-04-03T23:31:08.227Z,84.50
2023-04-03T23:33:39.482Z,84.78
2023-04-03T23:36:09.057Z,84.87
2023-04-03T23:38:38.358Z,85.00
2023-04-03T23:41:07.419Z,85.05
2023-04-03T23:43:35.793Z,85.17
2023-04-03T23:46:04.282Z,84.38
2023-04-03T23:48:32.764Z,85.17
2023-04-03T23:51:02.642Z,84.96
2023-04-03T23:53:30.985Z,85.50
2023-04-03T23:55:59.544Z,85.69
2023-04-03T23:58:27.909Z,85.39
